createdAt,value
2023-07-28T00:02:34.990Z,27.8
2023-07-28T00:07:53.410Z,27.8
2023-07-28T00:13:11.688Z,27.8
2023-07-28T00:18:32.895Z,27.8
2023-07-28T00:23:51.055Z,27.8
2023-07-28T00:29:09.189Z,27.8
2023-07-28T00:34:27.699Z,27.8
2023-07-28T00:39:45.898Z,27.9
2023-07-28T00:45:04.225Z,27.9
2023-07-28T00:50:22.361Z,27.9
2023-07-28T00:55:40.723Z,27.9
2023-07-28T01:00:59.062Z,27.9
2023-07-28T01:06:17.423Z,27.9
2023-07-28T01:11:36.007Z,27.9
2023-07-28T01:16:54.364Z,27.9
2023-07-28T01:22:12.492Z,27.9
2023-07-28T01:27:30.662Z,27.9
2023-07-28T01:32:48.937Z,27.9
2023-07-28T01:38:07.386Z,27.9
2023-07-28T01:43:25.686Z,28
2023-07-28T01:48:43.732Z,27.9
2023-07-28T01:54:02.060Z,27.9
2023-07-28T01:59:20.241Z,27.9
2023-07-28T02:04:38.670Z,28
2023-07-28T02:09:56.879Z,27.9
2023-07-28T02:15:15.503Z,27.9
2023-07-28T02:20:33.859Z,27.9
2023-07-28T02:25:52.246Z,28
2023-07-28T02:31:13.547Z,28
2023-07-28T02:36:31.933Z,28
2023-07-28T02:41:50.541Z,28
2023-07-28T02:47:09.245Z,28
2023-07-28T02:52:27.766Z,28
2023-07-28T02:57:46.315Z,28
2023-07-28T03:03:05.253Z,28
2023-07-28T03:08:23.918Z,28
2023-07-28T03:13:42.274Z,28
2023-07-28T03:19:00.679Z,28
2023-07-28T03:24:19.056Z,28
2023-07-28T03:29:37.255Z,28
2023-07-28T03:34:55.666Z,28
2023-07-28T03:40:13.871Z,28
2023-07-28T03:45:32.243Z,28
2023-07-28T03:50:50.447Z,27.9
2023-07-28T03:56:08.986Z,27.9
2023-07-28T04:01:27.167Z,27.9
2023-07-28T04:06:45.679Z,27.9
2023-07-28T04:12:04.010Z,27.9
2023-07-28T04:17:22.432Z,27.9
2023-07-28T04:22:40.654Z,27.9
2023-07-28T04:27:58.842Z,27.9
2023-07-28T04:33:16.998Z,27.8
2023-07-28T04:38:35.633Z,27.6
2023-07-28T04:43:54.046Z,27.5
2023-07-28T04:49:12.564Z,27.5
2023-07-28T04:54:30.885Z,27.5
2023-07-28T04:59:49.205Z,27.4
2023-07-28T05:05:07.188Z,27.4
2023-07-28T05:10:25.536Z,27.5
2023-07-28T05:15:44.069Z,27.5
2023-07-28T05:21:02.393Z,27.5
2023-07-28T05:26:20.758Z,27.5
2023-07-28T05:31:39.153Z,27.5
2023-07-28T05:36:57.482Z,27.5
2023-07-28T05:42:15.929Z,27.5
2023-07-28T05:47:34.777Z,27.5
2023-07-28T05:52:53.406Z,27.5
2023-07-28T05:58:11.577Z,27.5
2023-07-28T06:03:29.733Z,27.5
2023-07-28T06:08:47.983Z,27.5
2023-07-28T06:14:06.626Z,27.5
2023-07-28T06:19:25.153Z,27.5
2023-07-28T06:24:43.462Z,27.5
2023-07-28T06:30:02.036Z,27.5
2023-07-28T06:35:20.553Z,27.3
2023-07-28T06:40:38.665Z,27.4
2023-07-28T06:45:57.141Z,27.4
2023-07-28T06:51:15.741Z,27.5
2023-07-28T06:56:33.687Z,27.5
2023-07-28T07:01:52.653Z,27.5
2023-07-28T07:07:11.099Z,27.4
2023-07-28T07:12:29.726Z,27.4
2023-07-28T07:17:48.235Z,27.3
2023-07-28T07:23:07.944Z,27.4
2023-07-28T07:28:28.584Z,27.4
2023-07-28T07:33:47.100Z,27.4
2023-07-28T07:39:05.621Z,27.5
2023-07-28T07:44:23.760Z,27.5
2023-07-28T07:49:26.337Z,27.5
2023-07-28T07:54:44.482Z,27.5
2023-07-28T08:00:02.817Z,27.5
2023-07-28T08:05:20.977Z,27.5
2023-07-28T08:10:39.321Z,27.6
2023-07-28T08:15:57.952Z,27.6
2023-07-28T08:21:22.989Z,27.6
2023-07-28T08:26:41.560Z,27.6
2023-07-28T08:32:00.062Z,27.6
2023-07-28T08:37:18.651Z,27.6
2023-07-28T08:42:37.004Z,27.7
2023-07-28T08:47:55.470Z,27.7
2023-07-28T08:53:13.530Z,27.7
2023-07-28T08:58:33.470Z,27.7
2023-07-28T09:03:51.746Z,27.7
2023-07-28T09:09:10.313Z,27.7
2023-07-28T09:14:28.620Z,27.7
2023-07-28T09:19:46.674Z,27.7
2023-07-28T09:25:04.847Z,27.8
2023-07-28T09:30:07.399Z,27.8
2023-07-28T09:35:25.776Z,27.8
2023-07-28T09:40:43.985Z,27.8
2023-07-28T09:45:46.783Z,27.8
2023-07-28T09:51:05.037Z,27.8
2023-07-28T09:56:23.566Z,27.9
2023-07-28T10:01:41.683Z,27.9
2023-07-28T10:07:00.446Z,27.8
2023-07-28T10:12:18.730Z,27.9
2023-07-28T10:17:24.156Z,27.9
2023-07-28T10:22:42.089Z,27.9
2023-07-28T10:28:00.712Z,27.9
2023-07-28T10:33:18.976Z,27.9
2023-07-28T10:38:37.138Z,27.9
2023-07-28T10:43:55.646Z,27.9
2023-07-28T10:49:13.900Z,27.9
2023-07-28T10:54:32.411Z,27.9
2023-07-28T10:59:50.592Z,27.9
2023-07-28T11:05:08.737Z,27.9
2023-07-28T11:10:27.517Z,27.9
2023-07-28T11:15:46.181Z,28
2023-07-28T11:21:04.733Z,27.9
2023-07-28T11:26:23.043Z,27.9
2023-07-28T11:31:41.405Z,28
2023-07-28T11:36:59.341Z,28
2023-07-28T11:42:17.856Z,28
2023-07-28T11:47:36.770Z,28
2023-07-28T11:52:55.322Z,28
2023-07-28T11:58:13.272Z,28
2023-07-28T12:03:32.213Z,28
2023-07-28T12:08:51.271Z,28
2023-07-28T12:19:36.853Z,28
2023-07-28T12:24:55.751Z,28.1
2023-07-28T12:30:18.209Z,28.1
2023-07-28T12:41:09.951Z,28.1
2023-07-28T12:46:31.032Z,28.1
2023-07-28T12:57:16.695Z,28.1
2023-07-28T13:02:39.438Z,28.1
2023-07-28T13:13:25.300Z,28.1
2023-07-28T13:18:43.923Z,28.2
2023-07-28T13:24:02.449Z,28.2
2023-07-28T13:29:21.225Z,28.2
2023-07-28T13:34:39.853Z,28.2
2023-07-28T13:39:58.824Z,28.2
2023-07-28T13:45:16.961Z,28.2
2023-07-28T13:50:38.687Z,28.2
2023-07-28T13:55:58.663Z,28.2
2023-07-28T14:01:16.896Z,28.2
2023-07-28T14:06:35.176Z,28.2
2023-07-28T14:11:53.733Z,28.2
2023-07-28T14:17:11.982Z,28.2
2023-07-28T14:22:30.116Z,28.3
2023-07-28T14:27:48.846Z,28.3
2023-07-28T14:33:07.319Z,28.3
2023-07-28T14:38:25.371Z,28.3
2023-07-28T14:43:43.693Z,28.3
2023-07-28T14:49:01.669Z,28.3
2023-07-28T14:54:19.997Z,28.3
2023-07-28T14:59:38.444Z,28.3
2023-07-28T15:04:56.577Z,28.3
2023-07-28T15:10:14.736Z,28.3
2023-07-28T15:15:33.090Z,28.3
2023-07-28T15:20:51.602Z,28.3
2023-07-28T15:26:10.093Z,28.3
2023-07-28T15:31:28.722Z,28.3
2023-07-28T15:36:47.336Z,28.3
2023-07-28T15:42:05.638Z,28.3
2023-07-28T15:47:23.982Z,28.3
2023-07-28T15:52:42.501Z,28.3
2023-07-28T15:58:01.294Z,28.3
2023-07-28T16:03:20.012Z,28.3
2023-07-28T16:08:38.369Z,28.3
2023-07-28T16:13:56.929Z,28.3
2023-07-28T16:19:15.288Z,28.3
2023-07-28T16:24:33.821Z,28.4
2023-07-28T16:29:51.980Z,28.4
2023-07-28T16:35:10.399Z,28.4
2023-07-28T16:40:28.907Z,28.4
2023-07-28T16:45:47.273Z,28.4
2023-07-28T16:51:06.011Z,28.4
2023-07-28T16:56:24.804Z,28.4
2023-07-28T17:01:43.238Z,28.4
2023-07-28T17:07:01.501Z,28.4
2023-07-28T17:12:19.792Z,28.4
2023-07-28T17:17:38.124Z,28.4
2023-07-28T17:22:56.574Z,28.4
2023-07-28T17:28:14.870Z,28.4
2023-07-28T17:33:33.205Z,28.4
2023-07-28T17:38:51.211Z,28.4
2023-07-28T17:44:09.549Z,28.4
2023-07-28T17:49:28.346Z,28.4
2023-07-28T17:54:46.505Z,28.4
2023-07-28T18:00:04.697Z,28.4
2023-07-28T18:05:24.537Z,28.4
2023-07-28T18:10:42.959Z,28.4
2023-07-28T18:16:01.288Z,28.4
2023-07-28T18:21:19.728Z,28.4
2023-07-28T18:26:37.929Z,28.4
2023-07-28T18:31:56.267Z,28.4
2023-07-28T18:37:14.829Z,28.4
2023-07-28T18:42:33.198Z,28.4
2023-07-28T18:47:51.414Z,28.4
2023-07-28T18:53:09.493Z,28.4
2023-07-28T18:58:27.691Z,28.4
2023-07-28T19:03:46.098Z,28.4
2023-07-28T19:09:04.292Z,28.4
2023-07-28T19:14:22.873Z,28.4
2023-07-28T19:19:41.670Z,28.4
2023-07-28T19:24:59.990Z,28.4
2023-07-28T19:30:18.190Z,28.4
2023-07-28T19:35:36.355Z,28.4
2023-07-28T19:40:54.705Z,28.4
2023-07-28T19:45:57.505Z,28.4
2023-07-28T19:51:15.583Z,28.4
2023-07-28T19:56:34.476Z,28.4
2023-07-28T20:01:53.802Z,28.4
2023-07-28T20:07:12.236Z,28.4
2023-07-28T20:12:30.196Z,28.4
2023-07-28T20:17:48.687Z,28.4
2023-07-28T20:23:07.260Z,28.4
2023-07-28T20:28:25.741Z,28.4
2023-07-28T20:33:44.138Z,28.4
2023-07-28T20:39:02.542Z,28.4
2023-07-28T20:44:20.656Z,28.4
2023-07-28T20:49:38.840Z,28.4
2023-07-28T20:54:57.007Z,28.4
2023-07-28T21:00:15.347Z,28.4
2023-07-28T21:05:33.948Z,28.4
2023-07-28T21:10:52.286Z,28.4
2023-07-28T21:16:10.902Z,28.4
2023-07-28T21:21:29.206Z,28.4
2023-07-28T21:26:47.413Z,28.4
2023-07-28T21:32:05.825Z,28.4
2023-07-28T21:37:24.210Z,28.4
2023-07-28T21:42:42.751Z,28.4
2023-07-28T21:48:01.128Z,28.4
2023-07-28T21:53:19.672Z,28.4
2023-07-28T21:58:37.906Z,28.4
2023-07-28T22:03:56.786Z,28.4
2023-07-28T22:09:15.570Z,28.4
2023-07-28T22:14:33.823Z,28.4
2023-07-28T22:19:52.361Z,28.4
2023-07-28T22:25:10.698Z,28.4
2023-07-28T22:30:29.069Z,28.4
2023-07-28T22:35:46.990Z,28.4
2023-07-28T22:41:05.372Z,28.4
2023-07-28T22:46:23.552Z,28.4
2023-07-28T22:51:42.050Z,28.4
2023-07-28T22:57:00.232Z,28.4
2023-07-28T23:02:18.363Z,28.4
2023-07-28T23:07:36.931Z,28.4
2023-07-28T23:12:55.310Z,28.4
2023-07-28T23:18:13.417Z,28.4
2023-07-28T23:23:31.978Z,28.4
2023-07-28T23:28:50.352Z,28.4
2023-07-28T23:34:08.689Z,28.4
2023-07-28T23:39:27.208Z,28.4
2023-07-28T23:44:45.570Z,28.4
2023-07-28T23:50:04.033Z,28.4
2023-07-28T23:55:22.287Z,28.4
